Terminal Aerodrome Forecast
Issued by NWS

Home | Current Version | Previous Version | Text Only | Print | Product List | Glossary On
Versions: 1 2 3 4 5 6 7 8 9 10 11 12 13 14 15 16
000
FTUS46 KMFR 152300
TAFOTH
TAF
KOTH 152324Z 1600/1624 35012G20KT P6SM SCT040 BKN250
     FM160200 36008KT P6SM BKN040 OVC250
     FM160400 VRB03KT P6SM OVC035
     FM160800 15005KT P6SM -RA OVC030
     FM161200 15005KT P6SM VCSH OVC025
     FM161600 16010KT P6SM OVC025
     FM162000 27012G20KT P6SM SCT025 OVC040=

USA.gov is the U.S. government's official web portal to all federal, state and local government web resources and services.